createdAt,value
2022-08-23T00:00:42.623Z,99.90
2022-08-23T00:03:11.174Z,99.90
2022-08-23T00:05:39.695Z,99.90
2022-08-23T00:08:08.362Z,99.90
2022-08-23T00:10:36.862Z,99.90
2022-08-23T00:13:05.405Z,99.90
2022-08-23T00:15:34.869Z,99.90
2022-08-23T00:18:03.425Z,99.90
2022-08-23T00:20:32.098Z,99.90
2022-08-23T00:23:00.655Z,99.90
2022-08-23T00:25:29.255Z,99.90
2022-08-23T00:27:57.784Z,99.90
2022-08-23T00:30:26.839Z,99.90
2022-08-23T00:32:57.881Z,99.90
2022-08-23T00:35:27.524Z,99.90
2022-08-23T00:38:10.594Z,99.90
2022-08-23T00:40:47.659Z,99.90
2022-08-23T00:43:35.735Z,99.90
2022-08-23T00:46:32.192Z,99.90
2022-08-23T00:49:02.695Z,99.90
2022-08-23T00:51:48.760Z,99.90
2022-08-23T00:54:22.600Z,99.90
2022-08-23T00:56:51.397Z,99.80
2022-08-23T00:59:23.223Z,99.80
2022-08-23T01:01:52.381Z,99.60
2022-08-23T01:04:21.339Z,99.20
2022-08-23T01:06:53.434Z,98.90
2022-08-23T01:09:22.713Z,98.90
2022-08-23T01:11:56.034Z,99.00
2022-08-23T01:14:33.401Z,98.30
2022-08-23T01:17:08.452Z,98.10
2022-08-23T01:19:48.845Z,97.90
2022-08-23T01:22:26.451Z,98.10
2022-08-23T01:25:07.111Z,97.90
2022-08-23T01:27:37.118Z,97.90
2022-08-23T01:30:08.208Z,97.70
2022-08-23T01:32:39.118Z,96.70
2022-08-23T01:35:07.841Z,95.60
2022-08-23T01:37:36.533Z,96.20
2022-08-23T01:40:06.107Z,95.60
2022-08-23T01:42:34.690Z,96.50
2022-08-23T01:45:03.215Z,96.00
2022-08-23T01:47:33.030Z,96.10
2022-08-23T01:50:01.709Z,95.80
2022-08-23T01:52:30.217Z,95.40
2022-08-23T01:54:58.802Z,95.30
2022-08-23T01:57:27.347Z,94.60
2022-08-23T01:59:56.303Z,95.00
2022-08-23T02:02:24.880Z,94.30
2022-08-23T02:04:54.195Z,93.60
2022-08-23T02:07:26.904Z,94.00
2022-08-23T02:09:55.476Z,93.10
2022-08-23T02:12:24.968Z,93.70
2022-08-23T02:14:53.499Z,94.50
2022-08-23T02:17:23.294Z,92.80
2022-08-23T02:19:51.951Z,92.00
2022-08-23T02:22:20.614Z,90.90
2022-08-23T02:24:49.603Z,90.10
2022-08-23T02:27:18.398Z,89.90
2022-08-23T02:29:48.101Z,90.80
2022-08-23T02:32:19.809Z,90.30
2022-08-23T02:34:57.800Z,90.00
2022-08-23T02:37:34.349Z,90.80
2022-08-23T02:40:03.100Z,91.60
2022-08-23T02:42:31.686Z,92.10
2022-08-23T02:45:00.412Z,90.20
2022-08-23T02:47:28.963Z,91.00
2022-08-23T02:49:57.518Z,88.60
2022-08-23T02:52:26.019Z,86.90
2022-08-23T02:54:58.285Z,89.00
2022-08-23T02:57:27.404Z,91.30
2022-08-23T02:59:59.276Z,91.40
2022-08-23T03:02:27.992Z,90.70
2022-08-23T03:04:56.575Z,90.20
2022-08-23T03:07:25.188Z,85.40
2022-08-23T03:09:54.200Z,85.90
2022-08-23T03:12:22.683Z,84.10
2022-08-23T03:14:53.290Z,87.20
2022-08-23T03:17:21.808Z,85.30
2022-08-23T03:19:50.760Z,85.60
2022-08-23T03:22:19.660Z,90.20
2022-08-23T03:24:48.157Z,90.40
2022-08-23T03:27:16.930Z,89.20
2022-08-23T03:29:45.675Z,86.80
2022-08-23T03:32:15.571Z,86.80
2022-08-23T03:34:44.174Z,87.50
2022-08-23T03:37:12.698Z,86.10
2022-08-23T03:39:41.278Z,87.40
2022-08-23T03:42:10.993Z,87.30
2022-08-23T03:44:41.418Z,86.30
2022-08-23T03:47:09.976Z,86.30
2022-08-23T03:49:38.822Z,87.20
2022-08-23T03:52:08.185Z,88.60
2022-08-23T03:54:37.025Z,85.10
2022-08-23T03:57:07.171Z,87.20
2022-08-23T03:59:36.354Z,87.60
2022-08-23T04:02:04.891Z,86.40
2022-08-23T04:04:35.851Z,87.90
2022-08-23T04:07:04.428Z,88.50
2022-08-23T04:09:33.050Z,83.60
2022-08-23T04:12:01.569Z,81.30
2022-08-23T04:14:30.124Z,82.90
2022-08-23T04:16:58.645Z,81.30
2022-08-23T04:19:27.170Z,79.20
2022-08-23T04:21:58.639Z,79.30
2022-08-23T04:24:27.360Z,80.50
2022-08-23T04:26:56.622Z,76.50
2022-08-23T04:29:34.463Z,79.40
2022-08-23T04:32:05.258Z,79.10
2022-08-23T04:34:37.422Z,84.60
2022-08-23T04:37:09.458Z,83.10
2022-08-23T04:40:01.450Z,81.80
2022-08-23T04:42:31.093Z,83.80
2022-08-23T04:44:59.645Z,84.20
2022-08-23T04:47:28.221Z,81.90
2022-08-23T04:49:56.750Z,82.00
2022-08-23T04:52:25.300Z,79.70
2022-08-23T04:54:53.824Z,81.00
2022-08-23T04:57:22.726Z,77.80
2022-08-23T04:59:51.259Z,79.50
2022-08-23T05:02:21.685Z,79.50
2022-08-23T05:04:50.166Z,79.10
2022-08-23T05:07:18.814Z,78.90
2022-08-23T05:09:47.302Z,79.50
2022-08-23T05:12:15.814Z,78.60
2022-08-23T05:14:44.349Z,79.10
2022-08-23T05:17:16.543Z,79.50
2022-08-23T05:19:47.024Z,79.30
2022-08-23T05:22:15.839Z,79.90
2022-08-23T05:24:44.374Z,81.70
2022-08-23T05:27:13.777Z,80.20
2022-08-23T05:29:42.397Z,79.50
2022-08-23T05:32:11.843Z,79.90
2022-08-23T05:34:40.678Z,81.30
2022-08-23T05:37:09.184Z,80.80
2022-08-23T05:39:37.944Z,82.10
2022-08-23T05:42:09.110Z,82.70
2022-08-23T05:44:38.542Z,82.60
2022-08-23T05:47:10.692Z,81.70
2022-08-23T05:49:41.499Z,80.60
2022-08-23T05:52:11.236Z,80.10
2022-08-23T05:54:39.782Z,79.30
2022-08-23T05:57:08.403Z,79.20
2022-08-23T05:59:36.938Z,78.60
2022-08-23T06:02:05.631Z,79.70
2022-08-23T06:04:34.349Z,78.60
2022-08-23T06:07:03.003Z,79.70
2022-08-23T06:09:31.529Z,79.20
2022-08-23T06:12:00.533Z,76.40
2022-08-23T06:14:29.784Z,76.10
2022-08-23T06:16:58.585Z,76.00
2022-08-23T06:19:27.282Z,77.50
2022-08-23T06:21:56.707Z,78.70
2022-08-23T06:24:25.272Z,79.50
2022-08-23T06:26:53.816Z,78.50
2022-08-23T06:29:22.816Z,79.30
2022-08-23T06:31:52.590Z,79.30
2022-08-23T06:34:23.356Z,77.50
2022-08-23T06:36:59.406Z,76.90
2022-08-23T06:39:28.744Z,77.00
2022-08-23T06:42:01.906Z,75.70
2022-08-23T06:44:30.987Z,76.20
2022-08-23T06:46:59.675Z,77.10
2022-08-23T06:49:28.955Z,78.50
2022-08-23T06:51:58.868Z,79.40
2022-08-23T06:54:28.215Z,79.20
2022-08-23T06:56:58.459Z,78.00
2022-08-23T06:59:27.041Z,80.40
2022-08-23T07:01:57.823Z,80.70
2022-08-23T07:04:31.237Z,79.40
2022-08-23T07:07:00.096Z,78.90
2022-08-23T07:09:28.876Z,77.10
2022-08-23T07:11:57.543Z,78.50
2022-08-23T07:14:26.381Z,80.10
2022-08-23T07:16:56.289Z,79.70
2022-08-23T07:19:29.158Z,80.90
2022-08-23T07:21:59.458Z,80.00
2022-08-23T07:24:32.331Z,82.10
2022-08-23T07:27:05.228Z,82.00
2022-08-23T07:29:34.280Z,80.20
2022-08-23T07:32:02.923Z,82.50
2022-08-23T07:34:31.487Z,78.20
2022-08-23T07:37:00.130Z,80.20
2022-08-23T07:39:29.091Z,79.70
2022-08-23T07:41:59.590Z,79.70
2022-08-23T07:44:30.196Z,81.10
2022-08-23T07:46:59.707Z,79.10
2022-08-23T07:49:29.593Z,80.70
2022-08-23T07:51:59.917Z,82.30
2022-08-23T07:54:29.562Z,80.90
2022-08-23T07:56:58.112Z,81.00
2022-08-23T07:59:27.989Z,79.90
2022-08-23T08:02:00.014Z,78.10
2022-08-23T08:04:28.705Z,77.70
2022-08-23T08:07:17.824Z,79.70
2022-08-23T08:09:46.205Z,80.80
2022-08-23T08:12:14.940Z,80.90
2022-08-23T08:14:44.227Z,78.40
2022-08-23T08:17:13.051Z,77.30
2022-08-23T08:19:42.746Z,79.20
2022-08-23T08:22:14.410Z,75.20
2022-08-23T08:24:43.037Z,75.30
2022-08-23T08:27:11.704Z,76.10
2022-08-23T08:29:40.250Z,78.40
2022-08-23T08:32:14.000Z,74.70
2022-08-23T08:34:43.094Z,75.80
2022-08-23T08:37:11.896Z,77.40
2022-08-23T08:39:46.521Z,77.30
2022-08-23T08:42:26.459Z,77.20
2022-08-23T08:44:54.960Z,79.90
2022-08-23T08:47:37.948Z,77.80
2022-08-23T08:50:10.052Z,78.50
2022-08-23T08:52:38.541Z,78.30
2022-08-23T08:55:15.428Z,79.30
2022-08-23T08:57:46.828Z,76.70
2022-08-23T09:00:21.102Z,76.30
2022-08-23T09:02:50.417Z,78.00
2022-08-23T09:05:22.627Z,77.60
2022-08-23T09:07:57.537Z,77.10
2022-08-23T09:10:42.637Z,77.00
2022-08-23T09:13:23.079Z,74.60
2022-08-23T09:16:14.210Z,72.20
2022-08-23T09:18:42.849Z,72.60
2022-08-23T09:21:11.581Z,73.00
2022-08-23T09:23:42.305Z,74.30
2022-08-23T09:26:27.568Z,73.80
2022-08-23T09:29:00.982Z,73.60
2022-08-23T09:31:46.450Z,77.00
2022-08-23T09:34:20.887Z,77.00
2022-08-23T09:36:52.082Z,75.90
2022-08-23T09:39:30.737Z,77.70
2022-08-23T09:42:00.169Z,77.00
2022-08-23T09:44:37.590Z,77.70
2022-08-23T09:47:09.020Z,77.50
2022-08-23T09:49:37.559Z,75.90
2022-08-23T09:52:24.172Z,74.00
2022-08-23T09:55:08.828Z,75.20
2022-08-23T09:57:37.372Z,74.00
2022-08-23T10:00:18.710Z,75.10
2022-08-23T10:02:47.289Z,77.00
2022-08-23T10:05:21.536Z,76.20
2022-08-23T10:07:57.876Z,76.10
2022-08-23T10:10:29.385Z,74.30
2022-08-23T10:12:58.789Z,73.20
2022-08-23T10:15:37.228Z,73.80
2022-08-23T10:18:18.825Z,76.00
2022-08-23T10:20:54.235Z,76.30
2022-08-23T10:23:36.586Z,75.00
2022-08-23T10:26:05.165Z,78.10
2022-08-23T10:28:57.674Z,76.80
2022-08-23T10:31:36.145Z,78.40
2022-08-23T10:34:14.130Z,78.00
2022-08-23T10:36:51.021Z,76.90
2022-08-23T10:39:23.493Z,76.80
2022-08-23T10:42:07.638Z,78.10
2022-08-23T10:44:56.910Z,78.20
2022-08-23T10:47:34.599Z,76.50
2022-08-23T10:50:06.242Z,76.50
2022-08-23T10:52:37.745Z,76.40
2022-08-23T10:55:18.547Z,75.70
2022-08-23T10:57:48.665Z,75.20
2022-08-23T11:00:22.713Z,75.20
2022-08-23T11:02:57.238Z,75.90
2022-08-23T11:05:31.072Z,76.10
2022-08-23T11:08:02.880Z,75.30
2022-08-23T11:10:31.628Z,75.80
2022-08-23T11:13:00.111Z,75.90
2022-08-23T11:15:28.644Z,76.10
2022-08-23T11:17:59.341Z,76.80
2022-08-23T11:20:46.150Z,76.70
2022-08-23T11:23:15.572Z,77.00
2022-08-23T11:25:45.164Z,77.70
2022-08-23T11:28:30.560Z,77.90
2022-08-23T11:30:59.181Z,77.90
2022-08-23T11:33:32.488Z,78.20
2022-08-23T11:36:10.147Z,78.40
2022-08-23T11:38:50.989Z,78.60
2022-08-23T11:41:19.659Z,78.70
2022-08-23T11:43:49.632Z,78.80
2022-08-23T11:46:27.758Z,79.10
2022-08-23T11:48:59.057Z,78.70
2022-08-23T11:51:28.507Z,79.10
2022-08-23T11:54:12.605Z,79.20
2022-08-23T11:56:46.299Z,79.40
2022-08-23T11:59:41.603Z,80.00
2022-08-23T12:02:33.744Z,80.30
2022-08-23T12:05:06.713Z,80.10
2022-08-23T12:07:46.705Z,80.40
2022-08-23T12:10:17.146Z,80.50
2022-08-23T12:12:47.377Z,80.90
2022-08-23T12:15:18.457Z,81.10
2022-08-23T12:17:47.616Z,81.30
2022-08-23T12:20:24.828Z,81.50
2022-08-23T12:22:57.956Z,81.70
2022-08-23T12:25:26.711Z,81.90
2022-08-23T12:28:01.057Z,82.10
2022-08-23T12:30:39.808Z,82.40
2022-08-23T12:33:19.983Z,82.60
2022-08-23T12:36:03.464Z,82.80
2022-08-23T12:38:51.830Z,82.80
2022-08-23T12:41:25.261Z,83.00
2022-08-23T12:44:03.243Z,83.10
2022-08-23T12:46:31.904Z,83.10
2022-08-23T12:49:00.554Z,83.30
2022-08-23T12:51:29.234Z,83.50
2022-08-23T12:53:57.829Z,83.60
2022-08-23T12:56:32.009Z,83.80
2022-08-23T12:59:08.047Z,84.20
2022-08-23T13:01:38.455Z,84.40
2022-08-23T13:04:13.480Z,84.60
2022-08-23T13:06:45.225Z,84.80
2022-08-23T13:09:19.541Z,84.80
2022-08-23T13:11:48.584Z,85.00
2022-08-23T13:14:31.051Z,85.10
2022-08-23T13:17:13.323Z,85.10
2022-08-23T13:19:41.958Z,85.20
2022-08-23T13:22:15.313Z,85.20
2022-08-23T13:24:44.996Z,85.20
2022-08-23T13:27:16.261Z,85.30
2022-08-23T13:29:55.362Z,85.30
2022-08-23T13:32:41.714Z,85.40
2022-08-23T13:35:27.346Z,85.40
2022-08-23T13:37:57.081Z,85.50
2022-08-23T13:40:31.431Z,85.50
2022-08-23T13:43:02.701Z,85.50
2022-08-23T13:45:36.295Z,85.50
2022-08-23T13:48:04.773Z,85.60
2022-08-23T13:50:34.752Z,85.60
2022-08-23T13:53:14.359Z,85.70
2022-08-23T13:55:45.596Z,85.30
2022-08-23T13:58:15.549Z,85.50
2022-08-23T14:00:45.866Z,85.40
2022-08-23T14:03:24.877Z,84.40
2022-08-23T14:05:54.073Z,83.90
2022-08-23T14:08:22.815Z,83.60
2022-08-23T14:10:51.707Z,83.70
2022-08-23T14:13:20.617Z,83.90
2022-08-23T14:15:58.487Z,83.80
2022-08-23T14:18:27.690Z,83.60
2022-08-23T14:20:57.513Z,83.30
2022-08-23T14:23:26.837Z,83.30
2022-08-23T14:25:57.754Z,83.20
2022-08-23T14:28:29.450Z,83.40
2022-08-23T14:30:59.081Z,83.70
2022-08-23T14:33:27.612Z,83.50
2022-08-23T14:35:57.324Z,83.70
2022-08-23T14:38:25.903Z,83.30
2022-08-23T14:40:56.855Z,83.20
2022-08-23T14:43:25.526Z,83.20
2022-08-23T14:45:56.004Z,83.30
2022-08-23T14:48:26.449Z,84.10
2022-08-23T14:50:55.375Z,83.70
2022-08-23T14:53:25.420Z,83.70
2022-08-23T14:56:12.301Z,83.50
2022-08-23T14:58:44.036Z,83.10
2022-08-23T15:01:13.080Z,83.00
2022-08-23T15:03:45.098Z,82.30
2022-08-23T15:06:14.872Z,82.10
2022-08-23T15:08:43.987Z,82.30
2022-08-23T15:14:01.795Z,82.90
2022-08-23T15:16:30.721Z,83.00
2022-08-23T15:18:59.413Z,83.30
2022-08-23T15:21:28.456Z,83.50
2022-08-23T15:23:56.953Z,83.70
2022-08-23T15:26:26.827Z,84.00
2022-08-23T15:28:55.473Z,84.10
2022-08-23T15:31:24.055Z,84.50
2022-08-23T15:33:52.504Z,84.50
2022-08-23T15:36:21.424Z,84.80
2022-08-23T15:38:50.759Z,85.10
2022-08-23T15:41:20.176Z,85.40
2022-08-23T15:43:49.118Z,85.60
2022-08-23T15:46:19.524Z,86.00
2022-08-23T15:48:50.433Z,85.90
2022-08-23T15:51:20.154Z,86.50
2022-08-23T15:53:49.029Z,86.10
2022-08-23T15:56:20.590Z,86.40
2022-08-23T15:58:49.257Z,86.70
2022-08-23T16:01:21.746Z,86.70
2022-08-23T16:03:53.140Z,86.80
2022-08-23T16:06:21.824Z,87.00
2022-08-23T16:08:53.553Z,86.80
2022-08-23T16:11:22.647Z,86.80
2022-08-23T16:13:55.279Z,86.70
2022-08-23T16:16:25.908Z,86.70
2022-08-23T16:18:55.205Z,86.70
2022-08-23T16:21:26.287Z,86.90
2022-08-23T16:23:55.649Z,86.90
2022-08-23T16:26:35.377Z,86.90
2022-08-23T16:29:05.848Z,86.80
2022-08-23T16:31:37.441Z,86.90
2022-08-23T16:34:09.544Z,87.10
2022-08-23T16:36:38.264Z,87.10
2022-08-23T16:39:07.327Z,87.10
2022-08-23T16:41:35.900Z,87.20
2022-08-23T16:44:04.917Z,87.60
2022-08-23T16:46:33.481Z,87.60
2022-08-23T16:49:03.585Z,87.80
2022-08-23T16:51:32.068Z,87.70
2022-08-23T16:54:02.483Z,87.70
2022-08-23T16:56:35.162Z,87.80
2022-08-23T16:59:04.932Z,87.80
2022-08-23T17:01:44.177Z,87.90
2022-08-23T17:04:13.696Z,88.20
2022-08-23T17:06:42.349Z,88.70
2022-08-23T17:09:11.421Z,89.20
2022-08-23T17:11:40.912Z,89.50
2022-08-23T17:14:09.833Z,89.20
2022-08-23T17:16:38.402Z,89.00
2022-08-23T17:19:06.898Z,89.70
2022-08-23T17:21:35.376Z,90.20
2022-08-23T17:24:03.948Z,90.20
2022-08-23T17:26:32.695Z,89.60
2022-08-23T17:29:02.000Z,89.50
2022-08-23T17:31:30.555Z,89.30
2022-08-23T17:34:04.245Z,89.10
2022-08-23T17:36:35.121Z,89.30
2022-08-23T17:39:04.956Z,90.00
2022-08-23T17:41:35.281Z,89.80
2022-08-23T17:44:04.901Z,90.00
2022-08-23T17:46:36.317Z,90.10
2022-08-23T17:49:05.337Z,90.10
2022-08-23T17:51:34.187Z,90.50
2022-08-23T17:54:03.360Z,90.30
2022-08-23T17:56:32.256Z,90.20
2022-08-23T17:59:01.301Z,90.40
2022-08-23T18:01:30.146Z,90.40
2022-08-23T18:03:58.839Z,90.40
2022-08-23T18:06:28.449Z,90.60
2022-08-23T18:08:56.901Z,90.50
2022-08-23T18:11:26.561Z,90.50
2022-08-23T18:13:55.031Z,90.50
2022-08-23T18:16:23.735Z,90.50
2022-08-23T18:18:55.141Z,90.60
2022-08-23T18:21:25.626Z,90.60
2022-08-23T18:23:54.215Z,90.50
2022-08-23T18:26:41.117Z,90.50
2022-08-23T18:29:13.170Z,90.70
2022-08-23T18:31:43.222Z,90.80
2022-08-23T18:34:12.533Z,91.10
2022-08-23T18:36:41.041Z,90.60
2022-08-23T18:39:09.664Z,90.50
2022-08-23T18:41:39.401Z,90.70
2022-08-23T18:44:08.428Z,90.50
2022-08-23T18:46:38.220Z,90.40
2022-08-23T18:49:07.450Z,90.70
2022-08-23T18:51:36.004Z,90.80
2022-08-23T18:54:04.607Z,90.90
2022-08-23T18:56:33.590Z,91.00
2022-08-23T18:59:02.567Z,91.20
2022-08-23T19:01:37.619Z,91.10
2022-08-23T19:04:06.791Z,91.10
2022-08-23T19:06:35.621Z,91.20
2022-08-23T19:09:05.310Z,91.10
2022-08-23T19:11:34.549Z,91.20
2022-08-23T19:14:03.219Z,91.20
2022-08-23T19:16:33.152Z,91.30
2022-08-23T19:19:01.892Z,91.30
2022-08-23T19:21:30.420Z,91.40
2022-08-23T19:23:59.211Z,91.40
2022-08-23T19:26:32.737Z,91.40
2022-08-23T19:29:02.471Z,91.50
2022-08-23T19:31:35.282Z,91.50
2022-08-23T19:34:07.179Z,91.60
2022-08-23T19:36:46.294Z,91.60
2022-08-23T19:39:17.133Z,91.60
2022-08-23T19:41:45.925Z,91.70
2022-08-23T19:44:14.661Z,91.90
2022-08-23T19:46:46.850Z,92.00
2022-08-23T19:49:15.831Z,92.00
2022-08-23T19:51:44.950Z,92.00
2022-08-23T19:54:14.706Z,91.90
2022-08-23T19:56:49.636Z,92.00
2022-08-23T19:59:21.325Z,92.00
2022-08-23T20:01:50.806Z,92.00
2022-08-23T20:04:21.633Z,92.00
2022-08-23T20:06:50.273Z,92.10
2022-08-23T20:09:20.044Z,92.20
2022-08-23T20:11:48.568Z,92.30
2022-08-23T20:14:17.053Z,92.20
2022-08-23T20:16:45.733Z,92.10
2022-08-23T20:19:14.377Z,91.90
2022-08-23T20:21:43.504Z,92.10
2022-08-23T20:24:12.909Z,92.30
2022-08-23T20:26:49.787Z,92.50
2022-08-23T20:29:20.721Z,92.50
2022-08-23T20:31:52.164Z,92.60
2022-08-23T20:34:20.756Z,92.70
2022-08-23T20:36:49.628Z,92.60
2022-08-23T20:39:23.225Z,92.70
2022-08-23T20:41:53.160Z,92.80
2022-08-23T20:44:22.174Z,93.00
2022-08-23T20:46:54.688Z,93.00
2022-08-23T20:49:25.860Z,93.00
2022-08-23T20:51:54.359Z,93.10
2022-08-23T20:54:24.077Z,93.00
2022-08-23T20:56:53.109Z,92.50
2022-08-23T20:59:21.837Z,92.70
2022-08-23T21:01:50.525Z,92.20
2022-08-23T21:04:19.495Z,92.00
2022-08-23T21:06:51.049Z,92.00
2022-08-23T21:09:22.557Z,91.90
2022-08-23T21:11:53.253Z,92.00
2022-08-23T21:14:21.936Z,91.90
2022-08-23T21:16:50.589Z,91.90
2022-08-23T21:19:19.941Z,91.80
2022-08-23T21:21:48.672Z,92.00
2022-08-23T21:24:17.189Z,93.10
2022-08-23T21:26:45.723Z,93.20
2022-08-23T21:29:14.283Z,93.20
2022-08-23T21:31:42.852Z,93.50
2022-08-23T21:34:11.409Z,93.20
2022-08-23T21:36:39.949Z,93.20
2022-08-23T21:39:08.476Z,93.00
2022-08-23T21:41:42.119Z,93.10
2022-08-23T21:44:15.152Z,93.20
2022-08-23T21:46:44.326Z,92.70
2022-08-23T21:49:13.180Z,92.60
2022-08-23T21:51:42.093Z,93.80
2022-08-23T21:54:11.830Z,93.90
2022-08-23T21:56:40.948Z,94.90
2022-08-23T21:59:10.531Z,94.80
2022-08-23T22:01:39.429Z,95.10
2022-08-23T22:04:09.225Z,95.30
2022-08-23T22:06:39.073Z,95.50
2022-08-23T22:09:08.777Z,96.10
2022-08-23T22:11:41.665Z,96.80
2022-08-23T22:14:11.213Z,95.60
2022-08-23T22:16:41.957Z,95.20
2022-08-23T22:19:10.536Z,95.40
2022-08-23T22:21:39.272Z,96.10
2022-08-23T22:24:08.773Z,97.70
2022-08-23T22:26:37.289Z,98.50
2022-08-23T22:29:06.562Z,99.70
2022-08-23T22:31:36.772Z,99.80
2022-08-23T22:34:05.348Z,97.80
2022-08-23T22:36:34.318Z,96.40
2022-08-23T22:39:03.512Z,95.90
2022-08-23T22:41:32.249Z,95.90
2022-08-23T22:44:01.680Z,97.20
2022-08-23T22:46:31.928Z,98.50
2022-08-23T22:49:00.629Z,95.90
2022-08-23T22:51:30.967Z,97.60
2022-08-23T22:54:01.524Z,96.00
2022-08-23T22:56:31.404Z,95.50
2022-08-23T22:59:00.312Z,95.30
2022-08-23T23:01:35.507Z,95.40
2022-08-23T23:04:04.994Z,95.10
2022-08-23T23:06:34.048Z,96.60
2022-08-23T23:09:02.624Z,99.30
2022-08-23T23:11:31.132Z,99.90
2022-08-23T23:13:59.739Z,99.90
2022-08-23T23:16:28.753Z,99.90
2022-08-23T23:19:15.691Z,99.90
2022-08-23T23:21:48.747Z,99.90
2022-08-23T23:24:20.263Z,99.90
2022-08-23T23:26:49.496Z,99.90
2022-08-23T23:29:18.900Z,99.90
2022-08-23T23:31:47.517Z,99.90
2022-08-23T23:34:16.118Z,99.90
2022-08-23T23:36:44.710Z,99.90
2022-08-23T23:39:14.060Z,99.90
2022-08-23T23:41:42.668Z,99.90
2022-08-23T23:44:11.222Z,99.90
2022-08-23T23:46:39.701Z,99.80
2022-08-23T23:49:08.250Z,99.90
2022-08-23T23:51:40.330Z,99.90
2022-08-23T23:54:08.913Z,99.90
2022-08-23T23:56:37.389Z,99.90
2022-08-23T23:59:05.982Z,99.90
